Time;durP1;ratioP1;P1;durP2;ratioP2;P2;SDS_P1;SDS_P2;PMS_P1;PMS_P2;Temp;Humidity;BMP_temperature;BMP_pressure;BME280_temperature;BME280_humidity;BME280_pressure;Samples;Min_cycle;Max_cycle;Signal;HPM_P1;HPM_P2
2023/01/17 00:02:07;;;;;;;4.45;1.20;;;;;;;2.46;100.00;98316.97;5037950;28;20041;-72
2023/01/17 00:10:09;;;;;;;3.47;1.00;;;;;;;2.30;100.00;98330.75;5028682;28;20041;-73
2023/01/17 00:12:35;;;;;;;3.00;0.95;;;;;;;2.24;100.00;98329.41;5027855;28;20041;-73
2023/01/17 00:15:01;;;;;;;1.35;0.77;;;;;;;2.23;100.00;98335.72;5011536;28;20043;-73
2023/01/17 00:17:28;;;;;;;2.00;0.90;;;;;;;2.21;100.00;98344.88;5028162;28;20037;-72
2023/01/17 01:34:56;;;;;;;1.00;0.90;;;;;;;1.19;100.00;98458.00;5038102;28;20259;-73
2023/01/17 01:37:22;;;;;;;2.40;1.20;;;;;;;1.18;100.00;98462.50;5030887;28;20030;-74
2023/01/17 01:39:47;;;;;;;1.45;1.10;;;;;;;1.17;100.00;98465.31;5014511;28;20128;-73
2023/01/17 01:42:14;;;;;;;2.55;1.15;;;;;;;1.16;100.00;98475.13;5014837;28;20171;-73
2023/01/17 01:44:42;;;;;;;1.10;0.90;;;;;;;1.15;100.00;98484.16;5026489;28;20457;-72
2023/01/17 01:47:17;;;;;;;1.83;1.50;;;;;;;1.15;100.00;98486.81;5045239;28;20018;-73
2023/01/17 01:49:43;;;;;;;1.95;1.33;;;;;;;1.15;100.00;98492.19;5031088;28;20384;-73
2023/01/17 01:52:09;;;;;;;1.52;1.33;;;;;;;1.19;100.00;98498.19;5014105;28;20026;-73
2023/01/17 01:54:43;;;;;;;3.90;1.50;;;;;;;1.20;100.00;98506.09;5031904;28;20041;-73
2023/01/17 01:57:12;;;;;;;1.77;1.50;;;;;;;1.20;100.00;98498.06;5037210;28;20041;-73
2023/01/17 01:59:42;;;;;;;4.03;1.83;;;;;;;1.20;100.00;98506.09;5030454;28;20456;-73
2023/01/17 02:02:07;;;;;;;1.70;1.60;;;;;;;1.18;100.00;98512.53;5042744;28;20032;-72
2023/01/17 02:04:34;;;;;;;2.90;1.88;;;;;;;1.19;100.00;98515.09;5051785;28;20478;-73
2023/01/17 02:07:06;;;;;;;5.32;2.30;;;;;;;1.16;100.00;98511.78;5051882;28;20045;-74
2023/01/17 02:09:31;;;;;;;2.15;2.00;;;;;;;1.11;100.00;98519.28;5041591;28;20056;-72
2023/01/17 02:11:57;;;;;;;2.60;2.00;;;;;;;1.09;100.00;98516.72;5013847;28;20064;-73
2023/01/17 02:14:23;;;;;;;2.80;2.05;;;;;;;1.09;100.00;98521.22;5031776;28;20033;-72
2023/01/17 02:17:10;;;;;;;4.38;2.15;;;;;;;1.11;100.00;98519.28;5031905;28;20132;-73
2023/01/17 02:20:14;;;;;;;4.25;2.60;;;;;;;1.15;100.00;98528.81;5030192;28;20040;-72
2023/01/17 02:23:18;;;;;;;5.18;2.17;;;;;;;1.19;100.00;98543.69;5036755;28;20115;-72
2023/01/17 02:26:09;;;;;;;2.97;1.70;;;;;;;1.19;100.00;98543.69;5050490;28;20037;-72
2023/01/17 02:29:16;;;;;;;2.85;1.98;;;;;;;1.21;100.00;98544.44;5030329;28;20144;-72
2023/01/17 02:31:48;;;;;;;2.45;1.80;;;;;;;1.23;100.00;98545.19;5031833;28;20041;-72
2023/01/17 02:34:43;;;;;;;2.45;1.50;;;;;;;1.25;100.00;98548.63;5031363;28;20095;-73
2023/01/17 02:37:24;;;;;;;2.58;1.70;;;;;;;1.20;100.00;98540.06;5037665;28;20048;-72
2023/01/17 02:40:03;;;;;;;2.72;1.83;;;;;;;1.18;100.00;98528.59;5050046;28;20469;-72
2023/01/17 02:42:36;;;;;;;5.95;1.83;;;;;;;1.16;100.00;98525.16;5039683;28;20411;-71
2023/01/17 02:45:02;;;;;;;;;;;;;;;1.13;100.00;98523.56;5031761;28;20045;-72
2023/01/17 02:47:29;;;;;;;1.70;1.20;;;;;;;1.08;100.00;98532.91;5013154;28;20012;-73
2023/01/17 02:50:00;;;;;;;2.22;1.00;;;;;;;1.05;100.00;98544.69;5030936;28;20033;-73
2023/01/17 02:52:52;;;;;;;3.35;1.10;;;;;;;1.02;100.00;98545.75;5029878;28;20034;-73
2023/01/17 02:55:31;;;;;;;1.92;1.20;;;;;;;0.99;100.00;98537.94;5030716;28;20127;-72
2023/01/17 02:58:08;;;;;;;1.27;0.80;;;;;;;0.97;100.00;98542.53;5029713;28;20041;-73
2023/01/17 03:00:49;;;;;;;3.13;0.80;;;;;;;0.94;100.00;98542.75;5031055;28;20038;-72
2023/01/17 03:03:20;;;;;;;1.50;1.00;;;;;;;0.90;100.00;98535.91;5030937;28;20087;-73
2023/01/17 03:05:54;;;;;;;1.52;0.80;;;;;;;0.84;100.00;98547.06;5043468;28;20036;-72
2023/01/17 03:08:20;;;;;;;1.00;0.80;;;;;;;0.77;100.00;98554.63;5049521;28;20082;-72
2023/01/17 03:10:45;;;;;;;0.60;0.60;;;;;;;0.73;100.00;98561.16;5050600;28;20167;-73
2023/01/17 03:13:11;;;;;;;0.57;0.57;;;;;;;0.67;100.00;98564.25;5032132;28;20101;-72
2023/01/17 03:15:38;;;;;;;2.90;0.80;;;;;;;0.65;100.00;98558.19;5045256;28;20042;-72
2023/01/17 03:18:10;;;;;;;1.45;0.63;;;;;;;0.63;100.00;98561.91;5028980;28;20048;-72
2023/01/17 03:20:35;;;;;;;1.85;0.80;;;;;;;0.59;100.00;98574.63;5028974;28;20063;-73
2023/01/17 03:23:01;;;;;;;1.70;0.50;;;;;;;0.54;100.00;98562.53;5030566;28;20029;-74
2023/01/17 03:25:26;;;;;;;2.13;0.77;;;;;;;0.49;100.00;98574.41;5029048;28;20025;-73
2023/01/17 03:27:53;;;;;;;3.17;0.70;;;;;;;0.44;100.00;98576.53;5028871;28;20039;-73
2023/01/17 03:30:20;;;;;;;2.42;0.73;;;;;;;0.35;100.00;98576.28;5046740;28;20484;-73
2023/01/17 03:32:45;;;;;;;1.65;0.55;;;;;;;0.29;100.00;98571.38;5049772;28;20094;-73
2023/01/17 03:35:11;;;;;;;3.90;0.98;;;;;;;0.18;100.00;98577.41;5034379;28;20116;-73
2023/01/17 03:37:37;;;;;;;1.58;0.70;;;;;;;0.10;100.00;98571.75;5029863;28;20141;-72
2023/01/17 03:40:03;;;;;;;3.70;0.80;;;;;;;0.09;100.00;98581.56;5028746;28;20503;-73
2023/01/17 03:42:28;;;;;;;2.88;0.80;;;;;;;0.02;100.00;98577.59;5028699;28;20550;-73
2023/01/17 03:44:53;;;;;;;3.00;1.30;;;;;;;-0.01;100.00;98583.13;5029191;28;20077;-72
2023/01/17 03:47:19;;;;;;;1.58;0.73;;;;;;;-0.03;100.00;98580.56;5029729;28;20072;-73
2023/01/17 03:49:44;;;;;;;1.27;0.70;;;;;;;-0.04;100.00;98576.19;5030220;28;20052;-73
2023/01/17 03:52:09;;;;;;;0.70;0.70;;;;;;;-0.07;100.00;98572.84;5028927;28;20025;-72
2023/01/17 03:54:35;;;;;;;5.03;1.05;;;;;;;-0.07;100.00;98579.03;5029931;28;20045;-73
2023/01/17 03:57:00;;;;;;;1.30;1.13;;;;;;;-0.09;100.00;98582.78;5034151;28;20115;-73
2023/01/17 03:59:25;;;;;;;4.82;0.90;;;;;;;-0.12;100.00;98577.63;5037504;28;20033;-73
2023/01/17 04:01:51;;;;;;;3.17;1.10;;;;;;;-0.11;100.00;98579.34;5028680;28;20489;-73
2023/01/17 04:04:16;;;;;;;3.90;0.80;;;;;;;-0.12;100.00;98581.16;5028395;28;20544;-73
2023/01/17 04:06:41;;;;;;;2.70;0.73;;;;;;;-0.11;100.00;98596.22;5014597;28;20563;-73
2023/01/17 04:09:07;;;;;;;1.45;1.05;;;;;;;-0.11;100.00;98582.00;5048162;28;20021;-72
2023/01/17 04:11:32;;;;;;;2.05;0.90;;;;;;;-0.07;100.00;98581.72;5033348;28;20094;-73
2023/01/17 04:13:58;;;;;;;4.30;1.20;;;;;;;-0.04;100.00;98581.53;5028343;28;20030;-73
2023/01/17 04:16:28;;;;;;;2.50;1.00;;;;;;;-0.01;100.00;98588.47;5028058;28;20467;-72
2023/01/17 04:18:54;;;;;;;2.92;1.20;;;;;;;-0.01;100.00;98586.66;5029410;28;20029;-72
2023/01/17 04:21:20;;;;;;;6.22;1.30;;;;;;;-0.01;100.00;98588.47;5029321;28;20496;-73
2023/01/17 04:23:46;;;;;;;3.25;1.13;;;;;;;0.02;100.00;98596.28;5027803;28;20041;-73
2023/01/17 04:26:11;;;;;;;2.13;1.13;;;;;;;0.02;100.00;98590.09;5029520;28;20063;-73
2023/01/17 04:28:37;;;;;;;5.63;1.40;;;;;;;0.04;100.00;98588.16;5029238;28;20029;-72
2023/01/17 04:31:02;;;;;;;3.08;1.33;;;;;;;0.03;100.00;98586.47;5011188;28;20393;-73
2023/01/17 04:33:28;;;;;;;1.70;1.25;;;;;;;0.01;100.00;98585.72;5024336;28;20529;-73
2023/01/17 04:35:54;;;;;;;2.90;1.55;;;;;;;-0.04;100.00;98578.00;5027958;28;20437;-72
2023/01/17 04:38:22;;;;;;;4.65;1.73;;;;;;;-0.04;100.00;98594.03;5039540;28;20033;-72
2023/01/17 04:40:48;;;;;;;4.32;1.60;;;;;;;-0.09;100.00;98585.47;5027604;28;20087;-73
2023/01/17 04:43:15;;;;;;;4.38;1.63;;;;;;;-0.11;100.00;98585.53;5027479;28;20067;-74
2023/01/17 04:45:40;;;;;;;4.40;1.73;;;;;;;-0.14;100.00;98590.22;5029863;28;20484;-73
2023/01/17 04:48:06;;;;;;;5.25;1.58;;;;;;;-0.18;100.00;98586.06;5029306;28;20041;-73
2023/01/17 04:50:32;;;;;;;3.45;1.55;;;;;;;-0.20;100.00;98588.81;5027511;28;20457;-72
2023/01/17 04:52:59;;;;;;;5.28;1.85;;;;;;;-0.22;100.00;98592.56;5027572;28;20026;-72
2023/01/17 04:55:24;;;;;;;3.80;2.03;;;;;;;-0.26;100.00;98591.88;5027944;28;20123;-73
2023/01/17 04:57:50;;;;;;;4.57;1.80;;;;;;;-0.30;100.00;98593.91;5046692;28;20059;-73
2023/01/17 05:00:16;;;;;;;6.90;1.83;;;;;;;-0.31;100.00;98594.00;5038309;28;20033;-73
2023/01/17 05:02:41;;;;;;;4.68;1.70;;;;;;;-0.31;100.00;98594.00;5035865;28;20040;-73
2023/01/17 05:05:07;;;;;;;5.57;1.80;;;;;;;-0.33;100.00;98601.25;5035501;28;20151;-72
2023/01/17 05:07:33;;;;;;;3.60;1.50;;;;;;;-0.37;100.00;98597.06;5034165;28;20378;-73
2023/01/17 05:10:01;;;;;;;5.00;2.20;;;;;;;-0.37;100.00;98597.94;5033051;28;20048;-72
2023/01/17 05:12:27;;;;;;;8.68;2.50;;;;;;;-0.40;100.00;98599.94;5034044;28;20042;-73
2023/01/17 05:14:52;;;;;;;6.85;3.05;;;;;;;-0.41;100.00;98592.88;5035201;28;20080;-72
2023/01/17 05:17:18;;;;;;;6.75;2.80;;;;;;;-0.40;100.00;98597.25;5033811;28;20106;-74
2023/01/17 05:19:44;;;;;;;9.93;2.90;;;;;;;-0.42;100.00;98594.69;5041227;28;20090;-74
2023/01/17 05:22:16;;;;;;;8.18;2.95;;;;;;;-0.44;100.00;98604.59;5037641;28;20452;-73
2023/01/17 05:24:45;;;;;;;10.20;4.00;;;;;;;-0.45;100.00;98599.38;5055744;28;20355;-73
2023/01/17 05:27:11;;;;;;;15.73;4.35;;;;;;;-0.46;100.00;98597.66;5046056;28;20126;-72
2023/01/17 05:29:37;;;;;;;9.35;4.10;;;;;;;-0.48;100.00;98594.22;5044111;28;20029;-74
2023/01/17 05:32:03;;;;;;;8.43;3.97;;;;;;;-0.50;100.00;98605.00;5053916;28;20036;-72
2023/01/17 05:34:29;;;;;;;8.23;4.18;;;;;;;-0.52;100.00;98601.56;5035408;28;20034;-74
2023/01/17 05:36:54;;;;;;;8.52;4.65;;;;;;;-0.52;100.00;98606.91;5043884;28;20047;-73
2023/01/17 05:39:19;;;;;;;13.32;4.53;;;;;;;-0.56;100.00;98603.59;5055858;28;20056;-73
2023/01/17 05:41:45;;;;;;;10.30;4.82;;;;;;;-0.59;100.00;98601.09;5048261;28;20048;-73
2023/01/17 05:44:10;;;;;;;9.85;4.53;;;;;;;-0.58;100.00;98612.63;5054564;28;20035;-72
2023/01/17 05:46:35;;;;;;;11.18;5.15;;;;;;;-0.60;100.00;98617.22;5053822;28;20501;-73
2023/01/17 05:49:01;;;;;;;11.30;5.00;;;;;;;-0.60;100.00;98618.09;5037432;28;20037;-73
2023/01/17 05:51:28;;;;;;;11.13;4.95;;;;;;;-0.61;100.00;98624.34;5035208;28;20025;-74
2023/01/17 05:53:53;;;;;;;13.23;4.18;;;;;;;-0.62;100.00;98619.97;5035029;28;20037;-73
2023/01/17 05:56:18;;;;;;;9.30;3.90;;;;;;;-0.63;100.00;98622.75;5033748;28;20044;-73
2023/01/17 05:58:44;;;;;;;7.53;4.20;;;;;;;-0.62;100.00;98630.66;5032369;28;20033;-75
2023/01/17 06:01:09;;;;;;;8.35;4.38;;;;;;;-0.64;100.00;98626.38;5034422;28;20076;-72
2023/01/17 06:03:35;;;;;;;9.23;4.15;;;;;;;-0.64;100.00;98632.56;5034815;28;20030;-73
2023/01/17 06:06:00;;;;;;;10.32;5.15;;;;;;;-0.65;100.00;98635.34;5035064;28;20028;-74
2023/01/17 06:08:25;;;;;;;12.40;5.82;;;;;;;-0.68;100.00;98627.53;5032002;28;20473;-73
2023/01/17 06:10:51;;;;;;;8.90;4.95;;;;;;;-0.69;100.00;98628.47;5031708;28;20491;-73
2023/01/17 06:13:20;;;;;;;13.60;5.00;;;;;;;-0.72;100.00;98626.00;5030115;28;20032;-74
2023/01/17 06:15:46;;;;;;;10.65;5.68;;;;;;;-0.75;100.00;98631.50;5033496;28;20040;-73
2023/01/17 06:18:15;;;;;;;13.15;6.20;;;;;;;-0.78;100.00;98629.91;5043827;28;20053;-72
2023/01/17 06:20:41;;;;;;;15.73;5.85;;;;;;;-0.81;100.00;98630.94;5031876;28;20112;-74
2023/01/17 06:23:09;;;;;;;12.20;6.15;;;;;;;-0.83;100.00;98624.00;5030836;28;20118;-72
2023/01/17 06:25:37;;;;;;;13.85;6.22;;;;;;;-0.87;100.00;98634.00;5030043;28;20501;-73
2023/01/17 06:28:03;;;;;;;16.50;7.50;;;;;;;-0.88;100.00;98642.09;5043861;28;20043;-72
2023/01/17 06:30:28;;;;;;;12.75;6.30;;;;;;;-0.90;100.00;98642.19;5031648;28;20033;-74
2023/01/17 06:32:54;;;;;;;18.08;7.85;;;;;;;-0.93;100.00;98641.50;5038067;28;20033;-74
2023/01/17 06:35:22;;;;;;;15.23;7.40;;;;;;;-0.92;100.00;98644.09;5044035;28;20043;-74
2023/01/17 06:37:54;;;;;;;16.38;7.28;;;;;;;-0.92;100.00;98645.91;5033071;28;20499;-73
2023/01/17 06:40:20;;;;;;;11.52;7.25;;;;;;;-0.95;100.00;98640.75;5049944;28;20049;-74
2023/01/17 06:42:46;;;;;;;12.55;6.68;;;;;;;-0.97;100.00;98643.53;5039048;28;20435;-74
2023/01/17 06:45:11;;;;;;;13.65;7.10;;;;;;;-1.01;100.00;98633.97;5031607;28;20040;-74
2023/01/17 06:47:38;;;;;;;15.27;7.82;;;;;;;-1.01;100.00;98642.00;5031246;28;20040;-74
2023/01/17 06:50:04;;;;;;;16.98;8.30;;;;;;;-1.04;100.00;98648.34;5031542;28;20124;-73
2023/01/17 06:52:29;;;;;;;15.77;7.80;;;;;;;-1.09;100.00;98639.78;5029641;28;20488;-74
2023/01/17 06:54:55;;;;;;;15.98;7.82;;;;;;;-1.07;100.00;98650.38;5013151;28;20040;-74
2023/01/17 06:57:21;;;;;;;16.30;7.80;;;;;;;-1.12;100.00;98642.66;5037354;28;20029;-75
2023/01/17 06:59:46;;;;;;;20.05;7.95;;;;;;;-1.11;100.00;98644.34;5038835;28;20034;-75
2023/01/17 07:02:11;;;;;;;15.40;7.30;;;;;;;-1.11;100.00;98643.50;5013850;28;20596;-74
2023/01/17 07:04:37;;;;;;;18.50;8.48;;;;;;;-1.14;100.00;98649.00;5013287;28;20556;-74
2023/01/17 07:07:02;;;;;;;14.57;7.50;;;;;;;-1.15;100.00;98652.63;5045267;28;20049;-75
2023/01/17 07:09:27;;;;;;;14.10;6.30;;;;;;;-1.20;100.00;98644.06;5051044;28;20025;-75
2023/01/17 07:12:00;;;;;;;13.00;7.00;;;;;;;-1.20;100.00;98649.38;5044726;28;20107;-76
2023/01/17 07:14:27;;;;;;;24.58;8.25;;;;;;;-1.22;100.00;98652.13;5031495;28;20501;-75
2023/01/17 07:16:52;;;;;;;13.35;6.57;;;;;;;-1.24;100.00;98648.72;5030059;28;20397;-76
2023/01/17 07:19:18;;;;;;;15.68;8.07;;;;;;;-1.26;100.00;98644.41;5031538;28;20034;-76
2023/01/17 07:21:43;;;;;;;18.75;7.50;;;;;;;-1.26;100.00;98655.06;5014357;28;20033;-76
2023/01/17 07:24:09;;;;;;;13.98;7.38;;;;;;;-1.29;100.00;98650.78;5030368;28;20025;-75
2023/01/17 07:26:36;;;;;;;17.35;7.07;;;;;;;-1.32;100.00;98650.97;5031997;28;20025;-76
2023/01/17 07:29:03;;;;;;;13.32;7.60;;;;;;;-1.34;100.00;98659.06;5030457;28;20060;-76
2023/01/17 07:31:29;;;;;;;13.93;7.80;;;;;;;-1.32;100.00;98661.63;5030491;28;20053;-76
2023/01/17 07:33:54;;;;;;;13.63;7.45;;;;;;;-1.35;100.00;98661.84;5031698;28;20071;-76
2023/01/17 07:36:19;;;;;;;15.85;8.13;;;;;;;-1.34;100.00;98666.22;5030502;28;20064;-76
2023/01/17 07:38:45;;;;;;;16.98;7.47;;;;;;;-1.37;100.00;98661.91;5014298;28;20485;-76
2023/01/17 07:41:11;;;;;;;17.38;8.15;;;;;;;-1.38;100.00;98659.34;5030754;28;20061;-76
2023/01/17 07:43:36;;;;;;;19.05;7.90;;;;;;;-1.39;100.00;98666.47;5031969;28;20026;-76
2023/01/17 07:46:04;;;;;;;21.55;8.70;;;;;;;-1.39;100.00;98668.28;5013912;28;20120;-76
2023/01/17 07:48:30;;;;;;;16.58;7.43;;;;;;;-1.40;100.00;98675.44;5030852;28;20484;-76
2023/01/17 07:50:57;;;;;;;13.98;7.18;;;;;;;-1.38;100.00;98672.66;5042441;28;20033;-76
2023/01/17 07:53:25;;;;;;;15.38;7.43;;;;;;;-1.41;100.00;98676.34;5014033;28;20037;-76
2023/01/17 07:55:51;;;;;;;15.02;7.95;;;;;;;-1.37;100.00;98680.56;5031900;28;20037;-77
2023/01/17 07:58:16;;;;;;;16.23;7.20;;;;;;;-1.37;100.00;98675.25;5030706;28;20025;-77
2023/01/17 08:00:43;;;;;;;14.75;8.25;;;;;;;-1.34;100.00;98679.53;5013897;28;20041;-76
2023/01/17 08:03:14;;;;;;;18.40;7.75;;;;;;;-1.32;100.00;98678.50;5021731;28;20033;-76
2023/01/17 08:05:41;;;;;;;12.45;7.43;;;;;;;-1.32;100.00;98670.50;5050434;28;20076;-77
2023/01/17 08:08:06;;;;;;;18.90;7.97;;;;;;;-1.29;100.00;98680.13;5033685;28;20078;-77
2023/01/17 08:10:31;;;;;;;18.42;8.55;;;;;;;-1.26;100.00;98671.06;5050218;28;20040;-76
2023/01/17 08:12:57;;;;;;;17.20;8.25;;;;;;;-1.27;100.00;98672.88;5037638;28;20116;-76
2023/01/17 08:15:25;;;;;;;18.52;8.18;;;;;;;-1.26;100.00;98669.25;5013723;28;20048;-77
2023/01/17 08:17:56;;;;;;;22.98;9.23;;;;;;;-1.23;100.00;98676.22;5030061;28;20044;-76
2023/01/17 08:20:22;;;;;;;19.10;7.13;;;;;;;-1.19;100.00;98675.09;5030258;28;20531;-77
2023/01/17 08:22:47;;;;;;;16.83;8.38;;;;;;;-1.16;100.00;98677.59;5030133;28;20025;-77
2023/01/17 08:25:13;;;;;;;16.63;8.63;;;;;;;-1.15;100.00;98679.31;5029911;28;20040;-77
2023/01/17 08:27:39;;;;;;;24.95;8.90;;;;;;;-1.12;100.00;98682.66;5012906;28;20477;-78
2023/01/17 08:30:07;;;;;;;24.92;8.57;;;;;;;-1.07;100.00;98683.25;5044663;28;20502;-76
2023/01/17 08:32:33;;;;;;;20.00;8.68;;;;;;;-1.05;100.00;98681.34;5039858;28;20033;-77
2023/01/17 08:34:58;;;;;;;19.00;8.70;;;;;;;-1.02;100.00;98685.63;5030120;28;20510;-77
2023/01/17 08:37:24;;;;;;;15.93;8.27;;;;;;;-1.03;100.00;98683.91;5030926;28;20485;-77
2023/01/17 08:39:50;;;;;;;22.10;9.00;;;;;;;-0.97;100.00;98696.91;5013649;28;20575;-78
2023/01/17 08:42:15;;;;;;;24.00;9.43;;;;;;;-0.96;100.00;98685.25;5029382;28;20050;-78
2023/01/17 08:44:42;;;;;;;17.17;8.57;;;;;;;-0.91;100.00;98693.84;5029575;28;20428;-78
2023/01/17 08:47:08;;;;;;;20.00;9.07;;;;;;;-0.90;100.00;98692.88;5029304;28;20041;-77
2023/01/17 08:49:33;;;;;;;16.20;9.30;;;;;;;-0.89;100.00;98694.59;5032949;28;20380;-78
2023/01/17 08:51:58;;;;;;;23.65;8.77;;;;;;;-0.89;100.00;98694.59;5032648;28;20380;-78
2023/01/17 08:54:24;;;;;;;19.50;9.75;;;;;;;-0.84;100.00;98691.66;5050530;28;20503;-78
2023/01/17 08:56:51;;;;;;;21.50;9.73;;;;;;;-0.82;100.00;98690.63;5037419;28;20021;-77
2023/01/17 08:59:17;;;;;;;26.55;9.13;;;;;;;-0.81;100.00;98684.31;5029338;28;20479;-79
2023/01/17 09:01:44;;;;;;;21.52;9.75;;;;;;;-0.80;100.00;98695.84;5029516;28;20108;-77
2023/01/17 09:04:11;;;;;;;22.10;9.50;;;;;;;-0.78;100.00;98693.97;5012756;28;20030;-78
2023/01/17 09:06:42;;;;;;;23.00;9.73;;;;;;;-0.77;100.00;98691.19;5030439;28;20091;-78
2023/01/17 09:09:12;;;;;;;27.02;9.63;;;;;;;-0.73;100.00;98699.88;5029090;28;20045;-78
2023/01/17 09:11:38;;;;;;;22.10;9.48;;;;;;;-0.70;100.00;98707.72;5028836;28;20092;-77
2023/01/17 09:14:03;;;;;;;15.75;8.65;;;;;;;-0.68;100.00;98702.28;5028187;28;20439;-78
2023/01/17 09:16:29;;;;;;;19.17;9.32;;;;;;;-0.63;100.00;98706.38;5030049;28;20072;-77
2023/01/17 09:18:56;;;;;;;18.75;9.63;;;;;;;-0.59;100.00;98705.22;5029816;28;20064;-77
2023/01/17 09:21:22;;;;;;;19.15;9.25;;;;;;;-0.55;100.00;98708.59;5028815;28;20033;-78
2023/01/17 09:23:47;;;;;;;20.80;10.15;;;;;;;-0.47;100.00;98708.09;5034783;28;20032;-78
2023/01/17 09:26:18;;;;;;;24.17;9.52;;;;;;;-0.40;100.00;98706.78;5048825;28;20041;-78
2023/01/17 09:28:44;;;;;;;20.05;9.77;;;;;;;-0.34;100.00;98712.56;5029650;28;20052;-78
2023/01/17 09:31:09;;;;;;;22.52;8.82;;;;;;;-0.29;100.00;98704.28;5030217;28;20041;-78
2023/01/17 09:33:36;;;;;;;21.60;9.40;;;;;;;-0.19;100.00;98708.09;5019768;28;20495;-78
2023/01/17 09:36:04;;;;;;;20.23;9.25;;;;;;;-0.11;100.00;98711.13;5029655;28;20048;-77
2023/01/17 09:38:30;;;;;;;21.65;8.93;;;;;;;-0.05;100.00;98713.44;5029205;28;20034;-77
2023/01/17 09:40:56;;;;;;;17.65;8.82;;;;;;;-0.05;100.00;98702.75;5011466;28;20037;-77
2023/01/17 09:43:32;;;;;;;19.27;9.27;;;;;;;0.07;100.00;98710.94;5013056;28;20504;-77
2023/01/17 09:45:58;;;;;;;17.02;8.40;;;;;;;0.13;100.00;98715.88;5032722;28;20033;-77
2023/01/17 09:48:32;;;;;;;20.38;8.90;;;;;;;0.20;100.00;98714.53;5031650;28;20519;-77
2023/01/17 09:51:14;;;;;;;20.45;9.60;;;;;;;0.32;100.00;98718.22;5031473;28;20127;-76
2023/01/17 09:53:42;;;;;;;26.57;9.07;;;;;;;0.43;100.00;98719.25;5032881;28;20065;-76
2023/01/17 09:56:10;;;;;;;17.42;8.65;;;;;;;0.56;100.00;98724.66;5031558;28;20029;-76
2023/01/17 09:58:43;;;;;;;15.45;8.02;;;;;;;0.66;100.00;98725.78;5032532;28;20041;-76
2023/01/17 10:01:50;;;;;;;21.55;9.07;;;;;;;0.74;100.00;98719.88;5031643;28;20523;-77
2023/01/17 10:04:41;;;;;;;20.05;8.73;;;;;;;0.88;100.00;98724.31;5026711;28;20060;-76
2023/01/17 10:07:31;;;;;;;18.90;8.75;;;;;;;0.96;100.00;98728.22;5022658;28;20055;-76
2023/01/17 10:10:15;;;;;;;15.52;8.40;;;;;;;1.03;100.00;98734.03;5031560;28;20455;-76
2023/01/17 10:13:18;;;;;;;14.63;7.68;;;;;;;1.09;100.00;98730.94;5041459;28;20075;-76
2023/01/17 10:16:00;;;;;;;15.48;8.48;;;;;;;1.12;100.00;98730.72;5019919;28;20120;-76
2023/01/17 10:18:58;;;;;;;20.73;8.47;;;;;;;1.19;100.00;98731.16;5032595;28;20033;-75
2023/01/17 10:21:49;;;;;;;14.35;6.95;;;;;;;1.26;100.00;98735.16;5030853;28;20295;-75
2023/01/17 10:24:45;;;;;;;15.57;7.90;;;;;;;1.32;100.00;98729.34;5032106;28;20485;-77
2023/01/17 10:27:23;;;;;;;14.30;7.22;;;;;;;1.38;100.00;98728.94;5031023;28;20030;-76
2023/01/17 10:29:49;;;;;;;21.27;7.93;;;;;;;1.41;100.00;98731.41;5030982;28;20049;-75
2023/01/17 10:32:15;;;;;;;15.63;8.60;;;;;;;1.48;100.00;98734.50;5013889;28;20060;-76
2023/01/17 10:34:48;;;;;;;16.02;8.18;;;;;;;1.55;100.00;98730.44;5031057;28;20067;-75
2023/01/17 10:37:24;;;;;;;12.95;7.60;;;;;;;1.62;100.00;98731.72;5030430;28;20448;-76
2023/01/17 10:39:53;;;;;;;16.50;7.28;;;;;;;1.69;100.00;98734.84;5032074;28;20087;-75
2023/01/17 10:42:22;;;;;;;14.45;7.22;;;;;;;1.77;100.00;98737.81;5029963;28;20041;-75
2023/01/17 10:44:57;;;;;;;16.45;7.35;;;;;;;1.80;100.00;98740.28;5041784;28;20074;-75
2023/01/17 10:47:24;;;;;;;20.20;8.48;;;;;;;1.83;100.00;98740.09;5051188;28;20377;-75
2023/01/17 10:49:57;;;;;;;15.05;7.55;;;;;;;1.86;100.00;98744.38;5047403;28;20091;-76
2023/01/17 10:52:54;;;;;;;16.15;8.23;;;;;;;1.92;100.00;98744.81;5029838;28;20079;-74
2023/01/17 10:55:28;;;;;;;14.88;8.38;;;;;;;2.03;100.00;98741.34;5030585;28;20041;-76
2023/01/17 10:57:56;;;;;;;16.88;7.63;;;;;;;2.14;100.00;98735.22;5030945;28;20175;-74
2023/01/17 11:00:29;;;;;;;15.68;7.25;;;;;;;2.29;100.00;98737.66;5012727;28;20178;-74
2023/01/17 11:02:54;;;;;;;17.65;7.88;;;;;;;2.47;100.00;98731.91;5030943;28;20117;-74
2023/01/17 11:05:24;;;;;;;14.65;6.95;;;;;;;2.62;100.00;98732.63;5030919;28;20156;-74
2023/01/17 11:08:12;;;;;;;12.48;7.70;;;;;;;2.81;100.00;98731.13;5029718;28;20068;-74
2023/01/17 11:10:41;;;;;;;13.02;7.07;;;;;;;2.99;100.00;98728.91;5030624;28;20524;-74
2023/01/17 11:13:22;;;;;;;16.08;6.95;;;;;;;3.08;98.47;98727.34;5030740;28;20120;-74
2023/01/17 11:15:50;;;;;;;11.50;7.28;;;;;;;3.07;95.87;98723.78;5030672;28;20045;-74
2023/01/17 11:18:18;;;;;;;12.18;7.68;;;;;;;3.07;95.50;98717.56;5029551;28;20030;-74
2023/01/17 11:20:44;;;;;;;15.70;7.53;;;;;;;3.11;96.80;98721.72;5030819;28;20041;-75
2023/01/17 11:23:20;;;;;;;16.88;6.63;;;;;;;3.16;95.56;98707.94;5030643;28;20497;-73
2023/01/17 11:25:53;;;;;;;20.77;8.18;;;;;;;3.22;93.49;98719.09;5045807;28;20111;-74
2023/01/17 11:28:31;;;;;;;9.00;5.63;;;;;;;3.28;94.02;98725.81;5030021;28;20556;-74
2023/01/17 11:30:59;;;;;;;12.75;5.93;;;;;;;3.30;93.96;98724.72;5049304;28;20099;-74
2023/01/17 11:33:46;;;;;;;11.20;5.72;;;;;;;3.41;95.55;98718.53;5057954;28;20481;-74
2023/01/17 11:36:29;;;;;;;11.02;6.13;;;;;;;3.47;93.72;98714.50;5030788;28;20045;-75
2023/01/17 11:38:57;;;;;;;11.88;5.25;;;;;;;3.49;92.27;98716.09;5029966;28;20087;-74
2023/01/17 11:41:26;;;;;;;12.55;5.95;;;;;;;3.55;92.21;98715.63;5030192;28;20501;-74
2023/01/17 11:43:59;;;;;;;9.65;5.13;;;;;;;3.65;93.25;98710.41;5030279;28;20395;-76
2023/01/17 11:46:27;;;;;;;9.48;5.00;;;;;;;3.78;91.47;98716.53;5030354;28;20037;-74
2023/01/17 11:48:55;;;;;;;10.23;4.47;;;;;;;3.84;93.38;98709.81;5030045;28;20469;-74
2023/01/17 11:51:42;;;;;;;11.60;4.75;;;;;;;3.85;91.34;98706.13;5030076;28;20555;-74
2023/01/17 11:54:16;;;;;;;7.15;4.43;;;;;;;3.79;90.45;98709.31;5028679;28;20124;-74
2023/01/17 11:56:45;;;;;;;9.88;5.28;;;;;;;3.72;90.43;98711.59;5046096;28;20037;-74
2023/01/17 11:59:36;;;;;;;8.63;4.28;;;;;;;3.67;90.01;98708.44;5012573;28;20052;-75
2023/01/17 12:02:33;;;;;;;13.70;5.10;;;;;;;3.68;90.30;98704.75;5028713;28;20128;-74
2023/01/17 12:05:30;;;;;;;9.40;4.05;;;;;;;3.70;91.70;98693.91;5028103;28;20034;-74
2023/01/17 12:08:53;;;;;;;10.27;5.00;;;;;;;3.75;90.38;98707.84;5030013;28;20405;-74
2023/01/17 12:11:34;;;;;;;8.43;5.05;;;;;;;3.80;90.35;98703.81;5000713;28;20129;-74
2023/01/17 12:14:24;;;;;;;8.15;4.30;;;;;;;3.88;90.57;98708.59;5043704;28;20033;-75
2023/01/17 12:17:02;;;;;;;12.75;4.88;;;;;;;3.95;89.05;98704.41;5028630;28;20088;-74
2023/01/17 12:19:52;;;;;;;11.38;5.28;;;;;;;3.95;88.04;98703.56;5028511;28;20043;-74
2023/01/17 12:22:36;;;;;;;8.20;4.43;;;;;;;3.96;88.01;98703.44;5028370;28;20480;-74
2023/01/17 12:25:04;;;;;;;11.93;4.60;;;;;;;4.00;85.97;98707.59;5012442;28;20555;-74
2023/01/17 12:27:48;;;;;;;7.75;4.25;;;;;;;3.98;84.93;98703.31;5039661;28;20065;-74
2023/01/17 12:30:51;;;;;;;10.65;3.83;;;;;;;3.97;87.02;98702.47;5029837;28;20144;-75
2023/01/17 12:33:33;;;;;;;8.88;3.65;;;;;;;4.00;86.57;98693.28;5024859;28;20057;-74
2023/01/17 12:36:47;;;;;;;8.55;3.78;;;;;;;4.00;86.05;98691.44;5028235;28;20041;-74
2023/01/17 12:39:17;;;;;;;9.38;3.85;;;;;;;3.88;82.27;98688.91;5027284;28;20045;-74
2023/01/17 12:41:51;;;;;;;6.28;3.70;;;;;;;3.86;83.37;98697.06;5009398;28;20054;-73
2023/01/17 12:44:22;;;;;;;6.30;3.50;;;;;;;3.82;84.23;98687.53;5020681;28;20109;-74
2023/01/17 12:47:01;;;;;;;6.78;3.42;;;;;;;3.83;84.99;98687.44;5028140;28;20421;-75
2023/01/17 12:49:40;;;;;;;6.45;3.58;;;;;;;3.79;82.83;98687.78;5028153;28;20045;-74
2023/01/17 12:52:34;;;;;;;7.30;3.47;;;;;;;3.77;83.62;98690.59;5011008;28;20485;-74
2023/01/17 12:55:06;;;;;;;6.15;2.70;;;;;;;3.68;78.14;98683.25;5028032;28;20492;-74
2023/01/17 12:57:40;;;;;;;3.75;2.40;;;;;;;3.66;81.19;98687.06;5029120;28;20477;-74
2023/01/17 13:00:18;;;;;;;6.20;3.45;;;;;;;3.61;80.49;98684.72;5028909;28;20045;-73
2023/01/17 13:02:55;;;;;;;6.32;2.55;;;;;;;3.57;80.63;98689.47;5029549;28;20489;-74
2023/01/17 13:05:31;;;;;;;5.25;2.75;;;;;;;3.53;80.74;98687.16;5027785;28;20045;-74